Time;durP1;ratioP1;P1;durP2;ratioP2;P2;SDS_P1;SDS_P2;PMS_P1;PMS_P2;Temp;Humidity;BMP_temperature;BMP_pressure;BME280_temperature;BME280_humidity;BME280_pressure;Samples;Min_cycle;Max_cycle;Signal;HPM_P1;HPM_P2
2022/08/01 00:01:06;;;;;;;;;;;21.30;52.00;;;;;;484134;246;1228;-49
2022/08/01 00:03:07;;;;;;;;;;;21.30;52.00;;;;;;484582;246;1172;-50
2022/08/01 00:05:08;;;;;;;;;;;21.30;52.00;;;;;;484554;246;1120;-50
2022/08/01 00:07:10;;;;;;;;;;;21.30;52.10;;;;;;484538;246;1199;-50
2022/08/01 00:09:11;;;;;;;;;;;21.30;52.10;;;;;;484333;246;1006;-50
2022/08/01 00:11:13;;;;;;;;;;;21.30;52.10;;;;;;484154;246;1190;-50
2022/08/01 00:13:14;;;;;;;;;;;21.30;52.00;;;;;;484106;246;1427;-50
2022/08/01 00:15:15;;;;;;;;;;;21.30;52.00;;;;;;484272;246;2188;-50
2022/08/01 00:17:16;;;;;;;;;;;21.30;52.00;;;;;;484149;246;1092;-50
2022/08/01 00:19:18;;;;;;;;;;;21.30;52.00;;;;;;484393;246;1502;-50
2022/08/01 00:21:19;;;;;;;;;;;21.30;52.00;;;;;;484137;246;1234;-50
2022/08/01 00:23:20;;;;;;;;;;;21.30;52.00;;;;;;484557;246;1264;-50
2022/08/01 00:25:22;;;;;;;;;;;21.30;52.00;;;;;;484543;246;1206;-50
2022/08/01 00:27:23;;;;;;;;;;;21.30;52.10;;;;;;484269;246;1193;-50
2022/08/01 00:29:24;;;;;;;;;;;21.30;52.00;;;;;;484145;246;1279;-50
2022/08/01 00:31:26;;;;;;;;;;;21.30;52.00;;;;;;484134;246;1223;-50
2022/08/01 00:33:27;;;;;;;;;;;21.30;52.00;;;;;;484377;246;1142;-51
2022/08/01 00:35:28;;;;;;;;;;;21.30;52.00;;;;;;484433;246;2185;-50
2022/08/01 00:37:30;;;;;;;;;;;21.30;52.10;;;;;;484505;246;1549;-50
2022/08/01 00:39:32;;;;;;;;;;;21.30;52.10;;;;;;484344;246;1067;-50
2022/08/01 00:41:33;;;;;;;;;;;21.30;52.10;;;;;;484538;246;2252;-50
2022/08/01 00:43:34;;;;;;;;;;;21.30;52.10;;;;;;484504;246;1078;-50
2022/08/01 00:45:35;;;;;;;;;;;21.30;52.10;;;;;;484492;246;1284;-49
2022/08/01 00:47:37;;;;;;;;;;;21.30;52.10;;;;;;484316;246;1071;-50
2022/08/01 00:49:38;;;;;;;;;;;21.30;52.20;;;;;;484596;246;1348;-50
2022/08/01 00:51:39;;;;;;;;;;;21.30;52.10;;;;;;484110;246;1026;-50
2022/08/01 00:53:41;;;;;;;;;;;21.30;52.10;;;;;;484189;246;1172;-50
2022/08/01 00:55:42;;;;;;;;;;;21.30;52.00;;;;;;484543;246;2187;-50
2022/08/01 00:57:43;;;;;;;;;;;21.30;52.00;;;;;;484276;246;1068;-50
2022/08/01 00:59:45;;;;;;;;;;;21.30;52.00;;;;;;484124;246;1085;-49
2022/08/01 01:01:46;;;;;;;;;;;21.30;52.10;;;;;;484298;246;1166;-50
2022/08/01 01:03:47;;;;;;;;;;;21.30;52.20;;;;;;484143;246;1107;-50
2022/08/01 01:05:49;;;;;;;;;;;21.30;52.20;;;;;;484565;246;1050;-50
2022/08/01 01:07:50;;;;;;;;;;;21.20;52.20;;;;;;484225;246;1087;-50
2022/08/01 01:09:51;;;;;;;;;;;21.30;52.20;;;;;;484581;246;976;-50
2022/08/01 01:11:53;;;;;;;;;;;21.30;52.10;;;;;;484085;246;1292;-50
2022/08/01 01:13:54;;;;;;;;;;;21.30;52.10;;;;;;484417;246;1205;-50
2022/08/01 01:15:55;;;;;;;;;;;21.30;52.20;;;;;;484506;246;2124;-50
2022/08/01 01:17:57;;;;;;;;;;;21.30;52.30;;;;;;484569;246;1169;-50
2022/08/01 01:19:58;;;;;;;;;;;21.20;52.20;;;;;;484477;246;1263;-50
2022/08/01 01:21:59;;;;;;;;;;;21.30;52.30;;;;;;484523;246;1258;-50
2022/08/01 01:24:00;;;;;;;;;;;21.30;52.20;;;;;;484137;246;1271;-50
2022/08/01 01:26:02;;;;;;;;;;;21.30;52.30;;;;;;484543;246;1240;-50
2022/08/01 01:28:04;;;;;;;;;;;21.30;52.30;;;;;;484556;246;1245;-50
2022/08/01 01:30:05;;;;;;;;;;;21.20;52.30;;;;;;484556;246;1293;-50
2022/08/01 01:32:06;;;;;;;;;;;21.20;52.30;;;;;;484267;246;1300;-50
2022/08/01 01:34:08;;;;;;;;;;;21.30;52.30;;;;;;484151;246;1255;-50
2022/08/01 01:36:09;;;;;;;;;;;21.30;52.20;;;;;;484513;246;2180;-50
2022/08/01 01:38:10;;;;;;;;;;;21.30;52.30;;;;;;484102;246;1208;-50
2022/08/01 01:40:12;;;;;;;;;;;21.30;52.30;;;;;;484130;246;1096;-50
2022/08/01 01:42:13;;;;;;;;;;;21.20;52.30;;;;;;484532;246;1246;-50
2022/08/01 01:44:14;;;;;;;;;;;21.30;52.40;;;;;;484162;246;1559;-50
2022/08/01 01:46:16;;;;;;;;;;;21.20;52.30;;;;;;484544;246;1492;-49
2022/08/01 01:48:17;;;;;;;;;;;21.20;52.30;;;;;;484180;246;1071;-50
2022/08/01 01:50:18;;;;;;;;;;;21.20;52.30;;;;;;484585;246;1084;-49
2022/08/01 01:52:20;;;;;;;;;;;21.30;52.30;;;;;;484501;246;1166;-50
2022/08/01 01:54:21;;;;;;;;;;;21.30;52.40;;;;;;484625;246;1268;-50
2022/08/01 01:56:22;;;;;;;;;;;21.20;52.30;;;;;;484630;246;2133;-50
2022/08/01 01:58:24;;;;;;;;;;;21.20;52.30;;;;;;484605;246;1257;-50
2022/08/01 02:00:25;;;;;;;;;;;21.30;52.30;;;;;;484605;246;1086;-50
2022/08/01 02:02:26;;;;;;;;;;;21.20;52.30;;;;;;484303;246;1235;-50
2022/08/01 02:04:28;;;;;;;;;;;21.20;52.30;;;;;;484626;246;1188;-50
2022/08/01 02:06:29;;;;;;;;;;;21.20;52.40;;;;;;484577;246;1108;-50
2022/08/01 02:08:30;;;;;;;;;;;21.30;52.40;;;;;;484176;246;1053;-50
2022/08/01 02:10:32;;;;;;;;;;;21.30;52.30;;;;;;484611;246;1017;-50
2022/08/01 02:12:33;;;;;;;;;;;21.30;52.30;;;;;;484633;246;1072;-50
2022/08/01 02:14:35;;;;;;;;;;;21.30;52.30;;;;;;484185;246;1068;-50
2022/08/01 02:16:36;;;;;;;;;;;21.20;52.30;;;;;;484130;246;2184;-50
2022/08/01 02:18:38;;;;;;;;;;;21.20;52.40;;;;;;484602;246;1289;-49
2022/08/01 02:20:39;;;;;;;;;;;21.30;52.40;;;;;;484143;246;1144;-50
2022/08/01 02:22:41;;;;;;;;;;;21.30;52.40;;;;;;484571;246;1068;-50
2022/08/01 02:24:42;;;;;;;;;;;21.30;52.40;;;;;;484474;246;984;-50
2022/08/01 02:26:43;;;;;;;;;;;21.30;52.30;;;;;;484261;246;1327;-50
2022/08/01 02:28:45;;;;;;;;;;;21.30;52.40;;;;;;484597;246;1225;-50
2022/08/01 02:30:46;;;;;;;;;;;21.20;52.40;;;;;;484612;246;1082;-51
2022/08/01 02:32:48;;;;;;;;;;;21.30;52.40;;;;;;484303;246;1141;-50
2022/08/01 02:34:49;;;;;;;;;;;21.30;52.50;;;;;;484618;246;1039;-50
2022/08/01 02:36:51;;;;;;;;;;;21.20;52.40;;;;;;484123;246;2184;-50
2022/08/01 02:38:51;;;;;;;;;;;21.30;52.40;;;;;;484161;246;1179;-50
2022/08/01 02:40:53;;;;;;;;;;;21.20;52.50;;;;;;484620;246;1200;-50
2022/08/01 02:42:54;;;;;;;;;;;21.20;52.40;;;;;;484184;246;1165;-50
2022/08/01 02:44:55;;;;;;;;;;;21.20;52.50;;;;;;484149;246;1210;-50
2022/08/01 02:46:57;;;;;;;;;;;21.20;52.50;;;;;;484464;246;1193;-50
2022/08/01 02:48:58;;;;;;;;;;;21.20;52.50;;;;;;484129;246;1276;-50
2022/08/01 02:51:00;;;;;;;;;;;21.20;52.50;;;;;;484325;246;1174;-50
2022/08/01 02:53:01;;;;;;;;;;;21.20;52.50;;;;;;484431;246;1598;-50
2022/08/01 02:55:02;;;;;;;;;;;21.20;52.50;;;;;;484097;246;1234;-50
2022/08/01 02:57:04;;;;;;;;;;;21.20;52.50;;;;;;484474;246;2144;-50
2022/08/01 02:59:05;;;;;;;;;;;21.30;52.50;;;;;;484561;246;1354;-50
2022/08/01 03:01:06;;;;;;;;;;;21.20;52.40;;;;;;484114;246;1128;-50
2022/08/01 03:03:07;;;;;;;;;;;21.20;52.40;;;;;;484134;246;1244;-50
2022/08/01 03:05:09;;;;;;;;;;;21.20;52.40;;;;;;484532;246;1260;-50
2022/08/01 03:07:10;;;;;;;;;;;21.20;52.50;;;;;;484136;246;1215;-50
2022/08/01 03:09:11;;;;;;;;;;;21.20;52.40;;;;;;484523;246;1200;-50
2022/08/01 03:11:13;;;;;;;;;;;21.20;52.40;;;;;;484566;246;1326;-50
2022/08/01 03:13:14;;;;;;;;;;;21.20;52.50;;;;;;484598;246;1219;-49
2022/08/01 03:15:15;;;;;;;;;;;21.20;52.50;;;;;;484155;246;1267;-50
2022/08/01 03:17:17;;;;;;;;;;;21.30;52.50;;;;;;484247;246;2211;-50
2022/08/01 03:19:18;;;;;;;;;;;21.20;52.50;;;;;;484603;246;1055;-49
2022/08/01 03:21:19;;;;;;;;;;;21.20;52.60;;;;;;484630;246;1134;-49
2022/08/01 03:23:21;;;;;;;;;;;21.20;52.50;;;;;;484593;246;1318;-50
2022/08/01 03:25:22;;;;;;;;;;;21.20;52.50;;;;;;484622;246;1262;-50
2022/08/01 03:27:24;;;;;;;;;;;21.30;52.50;;;;;;484541;246;2161;-50
2022/08/01 03:29:25;;;;;;;;;;;21.20;52.50;;;;;;484248;246;1239;-50
2022/08/01 03:31:26;;;;;;;;;;;21.20;52.50;;;;;;484126;246;1328;-50
2022/08/01 03:33:27;;;;;;;;;;;21.30;52.50;;;;;;484150;246;1155;-50
2022/08/01 03:35:29;;;;;;;;;;;21.20;52.50;;;;;;484593;246;1303;-50
2022/08/01 03:37:30;;;;;;;;;;;21.30;52.50;;;;;;484516;246;2183;-50
2022/08/01 03:39:31;;;;;;;;;;;21.20;52.50;;;;;;484572;246;1253;-49
2022/08/01 03:41:33;;;;;;;;;;;21.30;52.50;;;;;;484603;246;1221;-50
2022/08/01 03:43:35;;;;;;;;;;;21.20;52.50;;;;;;484144;246;1208;-49
2022/08/01 03:45:35;;;;;;;;;;;21.30;52.50;;;;;;484069;246;2462;-50
2022/08/01 03:47:37;;;;;;;;;;;21.30;52.50;;;;;;484468;246;1597;-50
2022/08/01 03:49:38;;;;;;;;;;;21.20;52.60;;;;;;484514;246;1091;-50
2022/08/01 03:51:39;;;;;;;;;;;21.30;52.60;;;;;;484445;246;1359;-50
2022/08/01 03:53:41;;;;;;;;;;;21.20;52.60;;;;;;484212;246;1239;-50
2022/08/01 03:55:42;;;;;;;;;;;21.30;52.60;;;;;;484059;246;1233;-50
2022/08/01 03:57:43;;;;;;;;;;;21.30;52.60;;;;;;484477;246;2160;-51
2022/08/01 03:59:45;;;;;;;;;;;21.20;52.60;;;;;;484436;246;1221;-50
2022/08/01 04:01:46;;;;;;;;;;;21.20;52.60;;;;;;484042;246;1345;-50
2022/08/01 04:03:47;;;;;;;;;;;21.20;52.60;;;;;;484103;246;1169;-50
2022/08/01 04:05:49;;;;;;;;;;;21.20;52.60;;;;;;484072;246;1120;-50
2022/08/01 04:07:55;;;;;;;;;;;21.30;52.60;;;;;;483983;246;1181;-50
2022/08/01 04:09:52;;;;;;;;;;;21.20;52.60;;;;;;483920;246;1382;-50
2022/08/01 04:11:53;;;;;;;;;;;21.20;52.50;;;;;;484030;246;1682;-50
2022/08/01 04:13:55;;;;;;;;;;;21.20;52.70;;;;;;484202;246;1180;-50
2022/08/01 04:15:56;;;;;;;;;;;21.20;52.60;;;;;;484089;246;1095;-51
2022/08/01 04:17:57;;;;;;;;;;;21.20;52.50;;;;;;484229;246;2124;-50
2022/08/01 04:19:59;;;;;;;;;;;21.20;52.50;;;;;;484055;246;1169;-50
2022/08/01 04:22:00;;;;;;;;;;;21.20;52.60;;;;;;484017;246;1316;-50
2022/08/01 04:24:03;;;;;;;;;;;21.30;52.60;;;;;;484189;246;1313;-50
2022/08/01 04:26:03;;;;;;;;;;;21.30;52.50;;;;;;491395;243;2040;-49
2022/08/01 04:28:05;;;;;;;;;;;21.30;52.60;;;;;;484487;246;2389;-50
2022/08/01 04:30:05;;;;;;;;;;;21.20;52.50;;;;;;484340;246;2059;-49
2022/08/01 04:32:07;;;;;;;;;;;21.30;52.60;;;;;;484103;246;1263;-50
2022/08/01 04:34:08;;;;;;;;;;;21.20;52.60;;;;;;484164;246;1168;-50
2022/08/01 04:36:09;;;;;;;;;;;21.20;52.70;;;;;;484364;246;1267;-50
2022/08/01 04:38:12;;;;;;;;;;;21.20;52.60;;;;;;484236;246;2120;-50
2022/08/01 04:40:12;;;;;;;;;;;21.20;52.60;;;;;;484126;246;2157;-49
2022/08/01 04:42:13;;;;;;;;;;;21.20;52.60;;;;;;484209;246;1321;-50
2022/08/01 04:44:15;;;;;;;;;;;21.20;52.60;;;;;;484422;246;1265;-50
2022/08/01 04:46:17;;;;;;;;;;;21.20;52.60;;;;;;484289;246;1337;-50
2022/08/01 04:48:19;;;;;;;;;;;21.20;52.60;;;;;;484053;246;2155;-50
2022/08/01 04:50:21;;;;;;;;;;;21.20;52.60;;;;;;484342;246;2409;-50
2022/08/01 04:52:20;;;;;;;;;;;21.20;52.50;;;;;;483928;246;2062;-50
2022/08/01 04:54:21;;;;;;;;;;;21.30;52.60;;;;;;484235;246;1002;-50
2022/08/01 04:56:23;;;;;;;;;;;21.30;52.60;;;;;;483948;246;1135;-50
2022/08/01 04:58:24;;;;;;;;;;;21.20;52.60;;;;;;483975;246;2121;-49
2022/08/01 05:00:25;;;;;;;;;;;21.30;52.70;;;;;;483967;246;1031;-50
2022/08/01 05:02:28;;;;;;;;;;;21.20;52.60;;;;;;483927;246;1104;-49
2022/08/01 05:04:28;;;;;;;;;;;21.20;52.70;;;;;;483896;246;2391;-49
2022/08/01 05:06:29;;;;;;;;;;;21.30;52.80;;;;;;484346;246;1297;-49
2022/08/01 05:08:31;;;;;;;;;;;21.30;52.60;;;;;;483849;246;1170;-50
2022/08/01 05:10:32;;;;;;;;;;;21.30;52.50;;;;;;484140;246;1045;-50
2022/08/01 05:12:33;;;;;;;;;;;21.40;52.50;;;;;;484032;246;1177;-50
2022/08/01 05:14:35;;;;;;;;;;;21.40;52.40;;;;;;483922;246;1250;-50
2022/08/01 05:16:36;;;;;;;;;;;21.40;52.30;;;;;;484012;246;1182;-50
2022/08/01 05:18:37;;;;;;;;;;;21.40;52.10;;;;;;484067;246;2117;-50
2022/08/01 05:20:39;;;;;;;;;;;21.40;52.00;;;;;;484123;246;1273;-50
2022/08/01 05:22:40;;;;;;;;;;;21.40;51.80;;;;;;484284;246;1361;-50
2022/08/01 05:24:42;;;;;;;;;;;21.50;51.70;;;;;;484313;246;1287;-50
2022/08/01 05:26:43;;;;;;;;;;;21.40;51.60;;;;;;484305;246;1961;-50
2022/08/01 05:28:44;;;;;;;;;;;21.40;51.40;;;;;;484192;246;1187;-50
2022/08/01 05:30:45;;;;;;;;;;;21.40;51.40;;;;;;484164;246;1200;-50
2022/08/01 05:32:47;;;;;;;;;;;21.40;51.30;;;;;;484260;246;1213;-50
2022/08/01 05:34:48;;;;;;;;;;;21.50;51.10;;;;;;483994;246;1227;-50
2022/08/01 05:36:49;;;;;;;;;;;21.40;51.00;;;;;;483884;246;2192;-50
2022/08/01 05:38:51;;;;;;;;;;;21.50;51.00;;;;;;483939;246;1228;-50
2022/08/01 05:40:52;;;;;;;;;;;21.40;50.80;;;;;;483707;246;1161;-50
2022/08/01 05:42:53;;;;;;;;;;;21.50;50.80;;;;;;483621;246;1286;-50
2022/08/01 05:44:54;;;;;;;;;;;21.50;50.70;;;;;;483817;246;1206;-50
2022/08/01 05:46:56;;;;;;;;;;;21.50;50.60;;;;;;483795;246;1476;-50
2022/08/01 05:48:58;;;;;;;;;;;21.40;50.60;;;;;;483839;246;1150;-50
2022/08/01 05:50:58;;;;;;;;;;;21.40;50.50;;;;;;483700;246;1925;-50
2022/08/01 05:53:00;;;;;;;;;;;21.50;50.40;;;;;;483738;246;1074;-50
2022/08/01 05:55:01;;;;;;;;;;;21.50;50.30;;;;;;484003;246;1088;-50
2022/08/01 05:57:03;;;;;;;;;;;21.50;50.20;;;;;;483729;246;2129;-50
2022/08/01 05:59:04;;;;;;;;;;;21.50;50.10;;;;;;483800;246;1110;-50
2022/08/01 06:01:05;;;;;;;;;;;21.50;50.00;;;;;;483851;246;1042;-49
2022/08/01 06:03:06;;;;;;;;;;;21.50;50.00;;;;;;484063;246;1044;-50
2022/08/01 06:05:08;;;;;;;;;;;21.50;49.90;;;;;;483732;246;1174;-49
2022/08/01 06:07:09;;;;;;;;;;;21.50;49.90;;;;;;483855;246;1049;-50
2022/08/01 06:09:11;;;;;;;;;;;21.50;49.80;;;;;;483916;246;1202;-50
2022/08/01 06:11:12;;;;;;;;;;;21.50;49.80;;;;;;483879;246;1051;-50
2022/08/01 06:13:14;;;;;;;;;;;21.50;49.70;;;;;;483903;246;1033;-50
2022/08/01 06:15:15;;;;;;;;;;;21.50;49.70;;;;;;484036;246;1099;-50
2022/08/01 06:17:16;;;;;;;;;;;21.50;49.60;;;;;;483836;246;2208;-50
2022/08/01 06:19:17;;;;;;;;;;;21.50;49.60;;;;;;483690;246;1272;-50
2022/08/01 06:21:19;;;;;;;;;;;21.50;49.50;;;;;;483596;246;1317;-50
2022/08/01 06:23:20;;;;;;;;;;;21.50;49.50;;;;;;483872;246;1177;-49
2022/08/01 06:25:22;;;;;;;;;;;21.50;49.40;;;;;;483701;246;1518;-50
2022/08/01 06:27:24;;;;;;;;;;;21.50;49.30;;;;;;483570;246;1254;-50
2022/08/01 06:29:25;;;;;;;;;;;21.50;49.30;;;;;;483523;246;1819;-50
2022/08/01 06:31:26;;;;;;;;;;;21.50;49.30;;;;;;483590;246;1179;-50
2022/08/01 06:33:27;;;;;;;;;;;21.50;49.20;;;;;;483554;246;1322;-50
2022/08/01 06:35:29;;;;;;;;;;;21.50;49.10;;;;;;483645;246;1298;-50
2022/08/01 06:37:30;;;;;;;;;;;21.50;49.10;;;;;;483595;246;2200;-50
2022/08/01 06:39:31;;;;;;;;;;;21.50;49.00;;;;;;483772;239;1244;-50
2022/08/01 06:41:33;;;;;;;;;;;21.50;49.00;;;;;;483706;246;1132;-50
2022/08/01 06:43:34;;;;;;;;;;;21.50;49.00;;;;;;483708;246;1079;-50
2022/08/01 06:45:36;;;;;;;;;;;21.50;49.00;;;;;;483739;246;1083;-50
2022/08/01 06:47:37;;;;;;;;;;;21.50;49.00;;;;;;483696;246;1415;-50
2022/08/01 06:49:38;;;;;;;;;;;21.50;48.90;;;;;;483624;246;1453;-50
2022/08/01 06:51:39;;;;;;;;;;;21.50;48.90;;;;;;483589;246;1231;-50
2022/08/01 06:53:41;;;;;;;;;;;21.50;48.90;;;;;;483443;246;1119;-50
2022/08/01 06:55:42;;;;;;;;;;;21.50;48.80;;;;;;483064;246;1436;-50
2022/08/01 06:57:44;;;;;;;;;;;21.50;48.80;;;;;;483307;246;2191;-51
2022/08/01 06:59:45;;;;;;;;;;;21.50;48.70;;;;;;483412;246;1407;-50
2022/08/01 07:01:46;;;;;;;;;;;21.50;48.70;;;;;;483207;246;1322;-50
2022/08/01 07:03:48;;;;;;;;;;;21.60;48.70;;;;;;483338;246;1106;-50
2022/08/01 07:05:49;;;;;;;;;;;21.50;48.60;;;;;;483514;246;1168;-50
2022/08/01 07:07:50;;;;;;;;;;;21.50;48.60;;;;;;483749;246;1099;-50
2022/08/01 07:09:52;;;;;;;;;;;21.50;48.60;;;;;;483317;246;1090;-50
2022/08/01 07:11:53;;;;;;;;;;;21.50;48.60;;;;;;483473;246;1220;-50
2022/08/01 07:13:54;;;;;;;;;;;21.50;48.50;;;;;;483209;246;1079;-50
2022/08/01 07:15:56;;;;;;;;;;;21.50;48.60;;;;;;483446;246;1057;-50
2022/08/01 07:17:59;;;;;;;;;;;21.50;48.50;;;;;;483585;246;2227;-50
2022/08/01 07:19:58;;;;;;;;;;;21.50;48.50;;;;;;483120;246;2341;-50
2022/08/01 07:22:00;;;;;;;;;;;21.60;48.50;;;;;;483338;246;1860;-50
2022/08/01 07:24:01;;;;;;;;;;;21.50;48.40;;;;;;483614;246;1088;-50
2022/08/01 07:26:02;;;;;;;;;;;21.50;48.40;;;;;;490981;242;1071;-50
2022/08/01 07:28:04;;;;;;;;;;;21.50;48.40;;;;;;483730;246;1074;-50
2022/08/01 07:30:05;;;;;;;;;;;21.50;48.40;;;;;;483410;246;1087;-50
2022/08/01 07:32:06;;;;;;;;;;;21.50;48.30;;;;;;483680;246;1263;-50
2022/08/01 07:34:08;;;;;;;;;;;21.50;48.20;;;;;;483437;246;1076;-50
2022/08/01 07:36:09;;;;;;;;;;;21.60;48.20;;;;;;483417;246;1158;-50
2022/08/01 07:38:10;;;;;;;;;;;21.60;48.20;;;;;;483487;246;2192;-50
2022/08/01 07:40:12;;;;;;;;;;;21.60;48.20;;;;;;483634;246;1211;-50
2022/08/01 07:42:13;;;;;;;;;;;21.50;48.10;;;;;;483621;246;1060;-50
2022/08/01 07:44:14;;;;;;;;;;;21.50;48.10;;;;;;483700;246;1195;-50
2022/08/01 07:46:16;;;;;;;;;;;21.50;48.10;;;;;;483591;246;1064;-50
2022/08/01 07:48:18;;;;;;;;;;;21.60;48.10;;;;;;483560;246;1063;-50
2022/08/01 07:50:18;;;;;;;;;;;21.50;48.10;;;;;;483454;246;1727;-50
2022/08/01 07:52:20;;;;;;;;;;;21.50;48.10;;;;;;483575;246;1069;-50
2022/08/01 07:54:23;;;;;;;;;;;21.60;48.10;;;;;;490942;243;1122;-50
2022/08/01 07:56:25;;;;;;;;;;;21.60;48.10;;;;;;483500;246;2245;-50
2022/08/01 07:58:25;;;;;;;;;;;21.50;48.00;;;;;;483320;246;2187;-51
2022/08/01 08:00:28;;;;;;;;;;;21.60;48.10;;;;;;490403;243;1229;-50
2022/08/01 08:02:29;;;;;;;;;;;21.60;48.00;;;;;;483661;246;1324;-49
2022/08/01 08:04:30;;;;;;;;;;;21.50;48.00;;;;;;483484;246;1285;-50
2022/08/01 08:06:31;;;;;;;;;;;21.50;48.00;;;;;;483449;246;1237;-50
2022/08/01 08:08:34;;;;;;;;;;;21.50;48.00;;;;;;483297;246;1335;-50
2022/08/01 08:10:34;;;;;;;;;;;21.60;48.00;;;;;;483302;246;1410;-50
2022/08/01 08:12:35;;;;;;;;;;;21.60;47.90;;;;;;483249;246;1167;-50
2022/08/01 08:14:37;;;;;;;;;;;21.60;47.90;;;;;;483369;246;1191;-50
2022/08/01 08:16:38;;;;;;;;;;;21.60;47.90;;;;;;483197;246;1150;-50
2022/08/01 08:18:39;;;;;;;;;;;21.60;47.90;;;;;;483233;246;2207;-49
2022/08/01 08:20:41;;;;;;;;;;;21.60;48.00;;;;;;483444;246;1194;-50
2022/08/01 08:22:42;;;;;;;;;;;21.60;47.90;;;;;;483389;246;1413;-50
2022/08/01 08:24:43;;;;;;;;;;;21.60;47.90;;;;;;483180;246;1141;-50
2022/08/01 08:26:45;;;;;;;;;;;21.60;47.90;;;;;;483093;246;1337;-50
2022/08/01 08:28:46;;;;;;;;;;;21.60;47.90;;;;;;483175;246;1291;-50
2022/08/01 08:30:47;;;;;;;;;;;21.60;47.90;;;;;;483681;246;1001;-50
2022/08/01 08:32:49;;;;;;;;;;;21.60;47.90;;;;;;483173;246;1028;-50
2022/08/01 08:34:50;;;;;;;;;;;21.60;47.90;;;;;;483639;246;1160;-50
2022/08/01 08:36:52;;;;;;;;;;;21.60;47.90;;;;;;483351;246;1362;-50
2022/08/01 08:38:54;;;;;;;;;;;21.60;47.80;;;;;;490773;242;2184;-50
2022/08/01 08:40:54;;;;;;;;;;;21.60;47.80;;;;;;483861;246;1249;-50
2022/08/01 08:42:56;;;;;;;;;;;21.60;47.90;;;;;;483304;246;1254;-50
2022/08/01 08:44:57;;;;;;;;;;;21.60;47.90;;;;;;483257;246;1128;-49
2022/08/01 08:46:58;;;;;;;;;;;21.60;47.90;;;;;;483431;246;1224;-50
2022/08/01 08:49:00;;;;;;;;;;;21.60;47.90;;;;;;483435;246;1056;-50
2022/08/01 08:51:01;;;;;;;;;;;21.60;47.90;;;;;;483491;246;1207;-50
2022/08/01 08:53:04;;;;;;;;;;;21.60;47.90;;;;;;483398;246;1088;-50
2022/08/01 08:55:04;;;;;;;;;;;21.60;47.80;;;;;;483360;246;1936;-50
2022/08/01 08:57:05;;;;;;;;;;;21.60;47.80;;;;;;483102;246;1219;-50
2022/08/01 08:59:07;;;;;;;;;;;21.60;47.80;;;;;;483158;246;2196;-50
2022/08/01 09:01:09;;;;;;;;;;;21.60;47.80;;;;;;483234;246;1204;-50
2022/08/01 09:03:10;;;;;;;;;;;21.60;47.80;;;;;;483724;246;1255;-50
2022/08/01 09:05:11;;;;;;;;;;;21.60;47.70;;;;;;483812;246;1119;-50
2022/08/01 09:07:14;;;;;;;;;;;21.60;47.70;;;;;;483324;246;1236;-50
2022/08/01 09:09:14;;;;;;;;;;;21.60;47.70;;;;;;483432;246;2024;-49
2022/08/01 09:11:15;;;;;;;;;;;21.60;47.70;;;;;;483269;246;1068;-50
2022/08/01 09:13:17;;;;;;;;;;;21.60;47.70;;;;;;483087;246;1116;-50
2022/08/01 09:15:18;;;;;;;;;;;21.60;47.60;;;;;;483199;246;1155;-50
2022/08/01 09:17:19;;;;;;;;;;;21.60;47.60;;;;;;483273;246;1429;-50
2022/08/01 09:19:21;;;;;;;;;;;21.60;47.60;;;;;;483317;246;2240;-49
2022/08/01 09:21:23;;;;;;;;;;;21.60;47.50;;;;;;483190;246;1364;-50
2022/08/01 09:23:23;;;;;;;;;;;21.60;47.50;;;;;;482999;246;1994;-50
2022/08/01 09:25:25;;;;;;;;;;;21.60;47.50;;;;;;483322;246;1170;-50
2022/08/01 09:27:26;;;;;;;;;;;21.60;47.50;;;;;;483174;246;1085;-49
2022/08/01 09:29:27;;;;;;;;;;;21.60;47.50;;;;;;483337;246;1178;-50
2022/08/01 09:31:29;;;;;;;;;;;21.60;47.50;;;;;;483280;246;1199;-50
2022/08/01 09:33:30;;;;;;;;;;;21.60;47.50;;;;;;483439;246;1218;-50
2022/08/01 09:35:34;;;;;;;;;;;21.60;47.50;;;;;;483481;246;1072;-50
2022/08/01 09:37:33;;;;;;;;;;;21.60;47.50;;;;;;483306;246;2162;-50
2022/08/01 09:39:36;;;;;;;;;;;21.60;47.40;;;;;;483425;246;2113;-50
2022/08/01 09:41:36;;;;;;;;;;;21.60;47.40;;;;;;483118;246;1415;-50
2022/08/01 09:43:37;;;;;;;;;;;21.60;47.40;;;;;;483108;246;1082;-50
2022/08/01 09:45:39;;;;;;;;;;;21.60;47.30;;;;;;483331;246;1080;-50
2022/08/01 09:47:40;;;;;;;;;;;21.60;47.30;;;;;;483419;246;1092;-50
2022/08/01 09:49:41;;;;;;;;;;;21.60;47.40;;;;;;483433;246;1101;-50
2022/08/01 09:51:43;;;;;;;;;;;21.60;47.40;;;;;;483375;246;1366;-50
2022/08/01 09:53:44;;;;;;;;;;;21.60;47.40;;;;;;483299;246;1262;-50
2022/08/01 09:55:45;;;;;;;;;;;21.60;47.40;;;;;;483522;246;1181;-50
2022/08/01 09:57:47;;;;;;;;;;;21.60;47.30;;;;;;483298;246;1309;-50
2022/08/01 09:59:48;;;;;;;;;;;21.60;47.30;;;;;;483373;246;2190;-51
2022/08/01 10:01:49;;;;;;;;;;;21.60;47.30;;;;;;483410;246;1188;-50
2022/08/01 10:03:51;;;;;;;;;;;21.60;47.30;;;;;;483551;246;1220;-50
2022/08/01 10:05:53;;;;;;;;;;;21.60;47.30;;;;;;483722;246;1358;-49
2022/08/01 10:07:54;;;;;;;;;;;21.60;47.30;;;;;;483508;246;1215;-51
2022/08/01 10:09:55;;;;;;;;;;;21.60;47.20;;;;;;483658;246;1255;-50
2022/08/01 10:11:57;;;;;;;;;;;21.60;47.30;;;;;;483294;246;1239;-50
2022/08/01 10:13:58;;;;;;;;;;;21.60;47.30;;;;;;483310;246;1103;-50
2022/08/01 10:15:59;;;;;;;;;;;21.60;47.20;;;;;;483471;246;1180;-50
2022/08/01 10:18:01;;;;;;;;;;;21.60;47.20;;;;;;483374;246;1044;-50
2022/08/01 10:20:02;;;;;;;;;;;21.70;47.30;;;;;;483446;246;2268;-50
2022/08/01 10:22:04;;;;;;;;;;;21.60;47.20;;;;;;483356;246;1135;-50
2022/08/01 10:24:05;;;;;;;;;;;21.70;47.20;;;;;;483435;246;1386;-49
2022/08/01 10:26:06;;;;;;;;;;;21.70;47.20;;;;;;483630;246;1089;-50
2022/08/01 10:28:07;;;;;;;;;;;21.70;47.20;;;;;;483381;246;1288;-50
2022/08/01 10:30:09;;;;;;;;;;;21.70;47.20;;;;;;483416;246;1384;-50
2022/08/01 10:32:10;;;;;;;;;;;21.70;47.20;;;;;;483394;246;1236;-50
2022/08/01 10:34:11;;;;;;;;;;;21.60;47.20;;;;;;483385;246;1322;-50
2022/08/01 10:36:13;;;;;;;;;;;21.70;47.30;;;;;;483875;246;1068;-50
2022/08/01 10:38:14;;;;;;;;;;;21.60;47.20;;;;;;483664;246;1240;-50
2022/08/01 10:40:16;;;;;;;;;;;21.70;47.20;;;;;;483447;246;2138;-50
2022/08/01 10:42:17;;;;;;;;;;;21.70;47.20;;;;;;483289;246;1108;-50
2022/08/01 10:44:18;;;;;;;;;;;21.60;47.20;;;;;;483337;246;1061;-50
2022/08/01 10:46:20;;;;;;;;;;;21.70;47.30;;;;;;483570;246;1085;-50
2022/08/01 10:48:21;;;;;;;;;;;21.70;47.30;;;;;;483428;246;1083;-50
2022/08/01 10:50:23;;;;;;;;;;;21.70;47.30;;;;;;483308;239;1421;-50
2022/08/01 10:52:25;;;;;;;;;;;21.70;47.30;;;;;;483271;246;1233;-50
2022/08/01 10:54:26;;;;;;;;;;;21.60;47.30;;;;;;483337;246;1190;-50
2022/08/01 10:56:27;;;;;;;;;;;21.60;47.30;;;;;;483856;246;1230;-50
2022/08/01 10:58:29;;;;;;;;;;;21.70;47.30;;;;;;483456;246;1441;-50
2022/08/01 11:00:31;;;;;;;;;;;21.70;47.30;;;;;;483468;246;2223;-50
2022/08/01 11:02:33;;;;;;;;;;;21.70;47.20;;;;;;483354;246;1384;-50
2022/08/01 11:04:33;;;;;;;;;;;21.70;47.20;;;;;;483502;246;1230;-50
2022/08/01 11:06:35;;;;;;;;;;;21.70;47.10;;;;;;483406;246;1110;-49
2022/08/01 11:08:36;;;;;;;;;;;21.70;47.20;;;;;;483336;246;1132;-50
2022/08/01 11:10:37;;;;;;;;;;;21.70;47.10;;;;;;483450;246;1249;-50
2022/08/01 11:12:39;;;;;;;;;;;21.70;47.10;;;;;;483404;246;1211;-50
2022/08/01 11:14:40;;;;;;;;;;;21.70;47.10;;;;;;483438;246;1253;-50
2022/08/01 11:16:42;;;;;;;;;;;21.70;47.10;;;;;;483472;246;1070;-50
2022/08/01 11:18:43;;;;;;;;;;;21.70;47.10;;;;;;483503;246;1281;-50
2022/08/01 11:20:44;;;;;;;;;;;21.70;47.10;;;;;;483461;246;2191;-50
2022/08/01 11:22:46;;;;;;;;;;;21.70;47.00;;;;;;483411;246;1275;-49
2022/08/01 11:24:47;;;;;;;;;;;21.70;47.00;;;;;;483109;246;1978;-50
2022/08/01 11:26:48;;;;;;;;;;;21.70;47.00;;;;;;483438;246;1145;-50
2022/08/01 11:28:50;;;;;;;;;;;21.70;47.00;;;;;;483356;246;1066;-50
2022/08/01 11:30:51;;;;;;;;;;;21.70;47.00;;;;;;483540;246;1361;-50
2022/08/01 11:32:52;;;;;;;;;;;21.70;46.90;;;;;;483400;246;1303;-51
2022/08/01 11:34:54;;;;;;;;;;;21.70;46.90;;;;;;483322;246;1105;-49
2022/08/01 11:36:56;;;;;;;;;;;21.70;46.90;;;;;;483566;246;1224;-50
2022/08/01 11:38:57;;;;;;;;;;;21.70;46.90;;;;;;483560;246;2156;-50
2022/08/01 11:40:58;;;;;;;;;;;21.70;46.90;;;;;;483305;246;1099;-50
2022/08/01 11:43:00;;;;;;;;;;;21.70;46.90;;;;;;483162;246;1080;-49
2022/08/01 11:45:01;;;;;;;;;;;21.70;46.90;;;;;;483446;246;1274;-50
2022/08/01 11:47:03;;;;;;;;;;;21.70;46.80;;;;;;483417;246;1115;-50
2022/08/01 11:49:04;;;;;;;;;;;21.70;46.80;;;;;;483281;246;1095;-49
2022/08/01 11:51:06;;;;;;;;;;;21.70;46.80;;;;;;483417;246;1231;-50
2022/08/01 11:53:07;;;;;;;;;;;21.70;46.80;;;;;;483460;246;1145;-50
2022/08/01 11:55:08;;;;;;;;;;;21.70;46.80;;;;;;483334;246;1253;-50
2022/08/01 11:57:10;;;;;;;;;;;21.70;46.80;;;;;;483947;246;1119;-50